Time;durP1;ratioP1;P1;durP2;ratioP2;P2;SDS_P1;SDS_P2;PMS_P1;PMS_P2;Temp;Humidity;BMP_temperature;BMP_pressure;BME280_temperature;BME280_humidity;BME280_pressure;Samples;Min_cycle;Max_cycle;Signal;HPM_P1;HPM_P2
2023/01/17 00:01:55;0.00;0.00;0.62;0.00;0.00;0.62;1.57;0.70;;;22.30;25.80;;;;;;2259053;61;20456;-63
2023/01/17 00:10:48;0.00;0.00;0.62;0.00;0.00;0.62;2.13;0.90;;;22.30;25.70;;;;;;2258711;61;20430;-62
2023/01/17 00:13:32;0.00;0.00;0.62;0.00;0.00;0.62;1.40;0.70;;;22.30;25.70;;;;;;2259118;61;20484;-61
2023/01/17 00:16:17;0.00;0.00;0.62;0.00;0.00;0.62;1.40;0.70;;;22.30;25.70;;;;;;2259026;61;20809;-63
2023/01/17 01:34:10;0.00;0.00;0.62;0.00;0.00;0.62;1.80;0.70;;;22.20;25.80;;;;;;2251515;61;20983;-63
2023/01/17 01:36:56;0.00;0.00;0.62;0.00;0.00;0.62;1.40;1.00;;;22.20;25.60;;;;;;2251949;61;20799;-62
2023/01/17 01:39:40;0.00;0.00;0.62;0.00;0.00;0.62;1.40;0.90;;;22.10;25.80;;;;;;2252241;61;20367;-60
2023/01/17 01:42:25;0.00;0.00;0.62;0.00;0.00;0.62;1.57;0.80;;;22.10;25.10;;;;;;2251683;61;20367;-61
2023/01/17 01:45:18;0.00;0.00;0.62;0.00;0.00;0.62;1.50;1.00;;;22.00;25.00;;;;;;2252313;61;20370;-62
2023/01/17 01:48:13;0.00;0.00;0.62;0.00;0.00;0.62;1.97;1.00;;;22.00;24.70;;;;;;2250974;61;20426;-62
2023/01/17 01:51:00;0.00;0.00;0.62;0.00;0.00;0.62;1.70;1.20;;;21.90;24.50;;;;;;2252305;61;20951;-61
2023/01/17 01:53:50;0.00;0.00;0.62;0.00;0.00;0.62;1.87;1.40;;;21.80;24.30;;;;;;2251860;61;20433;-58
2023/01/17 01:56:36;0.00;0.00;0.62;0.00;0.00;0.62;1.60;1.13;;;21.70;24.00;;;;;;2251337;61;20406;-60
2023/01/17 01:59:21;0.00;0.00;0.62;0.00;0.00;0.62;1.70;1.00;;;21.60;24.00;;;;;;2252127;61;20402;-61
2023/01/17 02:02:07;0.00;0.00;0.62;0.00;0.00;0.62;1.50;1.00;;;21.60;24.00;;;;;;2254015;61;20459;-59
2023/01/17 02:04:52;0.00;0.00;0.62;0.00;0.00;0.62;1.53;1.00;;;21.50;24.00;;;;;;2256075;61;20369;-61
2023/01/17 02:07:44;0.00;0.00;0.62;0.00;0.00;0.62;1.43;1.00;;;21.40;23.90;;;;;;2255210;61;20437;-60
2023/01/17 02:10:33;0.00;0.00;0.62;0.00;0.00;0.62;1.40;0.90;;;21.30;23.70;;;;;;2255352;61;20446;-61
2023/01/17 02:13:19;0.00;0.00;0.62;0.00;0.00;0.62;2.27;0.80;;;21.20;23.70;;;;;;2256153;61;20429;-62
2023/01/17 02:16:17;0.00;0.00;0.62;0.00;0.00;0.62;1.50;1.00;;;21.10;23.70;;;;;;2255647;61;20454;-61
2023/01/17 02:19:44;0.00;0.00;0.62;0.00;0.00;0.62;1.60;0.87;;;21.00;23.80;;;;;;2255228;61;20505;-61
2023/01/17 02:23:12;0.00;0.00;0.62;0.00;0.00;0.62;1.57;1.00;;;20.90;23.80;;;;;;2250379;61;20401;-56
2023/01/17 02:26:38;0.00;0.00;0.62;0.00;0.00;0.62;1.40;0.80;;;20.80;23.90;;;;;;2254759;61;20369;-59
2023/01/17 02:30:12;0.00;0.00;0.62;0.00;0.00;0.62;1.30;0.73;;;20.80;24.00;;;;;;2255525;61;20373;-60
2023/01/17 02:33:11;0.00;0.00;0.62;0.00;0.00;0.62;1.37;0.80;;;20.70;24.00;;;;;;2255220;61;20377;-62
2023/01/17 02:36:06;0.00;0.00;0.62;0.00;0.00;0.62;1.30;0.83;;;20.60;23.90;;;;;;2256303;61;20778;-60
2023/01/17 02:39:00;0.00;0.00;0.62;0.00;0.00;0.62;1.50;0.80;;;20.60;24.00;;;;;;2255280;61;20416;-62
2023/01/17 02:41:50;0.00;0.00;0.62;0.00;0.00;0.62;1.40;0.93;;;20.50;23.90;;;;;;2255679;61;20369;-62
2023/01/17 02:44:40;0.00;0.00;0.62;0.00;0.00;0.62;1.57;0.80;;;20.40;23.90;;;;;;2254484;61;20377;-58
2023/01/17 02:47:27;0.00;0.00;0.62;0.00;0.00;0.62;1.60;1.00;;;20.40;24.00;;;;;;2254373;61;20386;-60
2023/01/17 02:50:18;0.00;0.00;0.62;0.00;0.00;0.62;1.30;0.80;;;20.30;24.00;;;;;;2255314;61;20468;-60
2023/01/17 02:53:22;0.00;0.00;0.62;0.00;0.00;0.62;1.37;0.77;;;20.30;24.00;;;;;;2254504;61;20385;-60
2023/01/17 02:56:22;0.00;0.00;0.62;0.00;0.00;0.62;1.40;0.80;;;20.20;24.10;;;;;;2254826;61;20389;-62
2023/01/17 02:59:18;0.00;0.00;0.62;0.00;0.00;0.62;1.57;1.07;;;20.20;24.00;;;;;;2254930;61;20504;-61
2023/01/17 03:02:15;0.00;0.00;0.62;0.00;0.00;0.62;1.70;1.27;;;20.10;24.00;;;;;;2254427;61;20381;-62
2023/01/17 03:05:04;0.00;0.00;0.62;0.00;0.00;0.62;1.40;0.80;;;20.00;24.00;;;;;;2255214;61;20358;-62
2023/01/17 03:07:52;0.00;0.00;0.62;0.00;0.00;0.62;1.80;0.93;;;20.00;24.20;;;;;;2254196;61;20382;-60
2023/01/17 03:10:38;0.00;0.00;0.62;0.00;0.00;0.62;1.40;0.80;;;19.90;24.20;;;;;;2254923;61;20366;-61
2023/01/17 03:13:24;0.00;0.00;0.62;0.00;0.00;0.62;1.73;0.90;;;19.90;24.30;;;;;;2255412;61;20958;-62
2023/01/17 03:16:15;0.00;0.00;0.62;0.00;0.00;0.62;1.80;0.90;;;19.90;24.30;;;;;;2254502;61;20381;-60
2023/01/17 03:19:00;0.00;0.00;0.62;0.00;0.00;0.62;1.53;0.90;;;19.80;24.10;;;;;;2255518;61;20381;-61
2023/01/17 03:21:45;0.00;0.00;0.62;0.00;0.00;0.62;1.60;0.97;;;19.80;24.70;;;;;;2255156;61;20386;-60
2023/01/17 03:24:31;0.00;0.00;0.62;0.00;0.00;0.62;1.50;0.80;;;19.70;24.10;;;;;;2254545;61;20865;-60
2023/01/17 03:27:15;0.00;0.00;0.62;0.00;0.00;0.62;1.70;0.80;;;19.70;24.20;;;;;;2254846;61;20382;-62
2023/01/17 03:30:00;0.00;0.00;0.62;0.00;0.00;0.62;1.40;0.80;;;19.70;24.30;;;;;;2254898;61;20959;-63
2023/01/17 03:32:45;0.00;0.00;0.62;0.00;0.00;0.62;1.60;0.83;;;19.60;24.30;;;;;;2254544;61;20505;-61
2023/01/17 03:35:30;0.00;0.00;0.62;0.00;0.00;0.62;1.40;0.90;;;19.60;24.30;;;;;;2255194;61;20369;-62
2023/01/17 03:38:15;0.00;0.00;0.62;0.00;0.00;0.62;1.40;0.70;;;19.60;24.30;;;;;;2254331;61;21143;-63
2023/01/17 03:40:52;0.00;0.00;0.62;0.00;0.00;0.62;1.50;0.80;;;19.60;24.40;;;;;;2255038;61;20370;-62
2023/01/17 03:43:37;0.00;0.00;0.62;0.00;0.00;0.62;1.40;0.80;;;19.60;24.40;;;;;;2255082;61;20425;-62
2023/01/17 03:46:24;0.00;0.00;0.62;0.00;0.00;0.62;1.40;0.70;;;19.50;24.30;;;;;;2254290;61;20692;-62
2023/01/17 03:49:08;0.00;0.00;0.62;0.00;0.00;0.62;1.40;0.90;;;19.50;24.40;;;;;;2255223;61;20366;-62
2023/01/17 03:51:53;0.00;0.00;0.62;0.00;0.00;0.62;1.20;0.60;;;19.50;24.30;;;;;;2254313;61;20408;-63
2023/01/17 03:54:38;0.00;0.00;0.62;0.00;0.00;0.62;1.30;0.70;;;19.40;24.30;;;;;;2254227;61;20362;-61
2023/01/17 03:57:24;0.00;0.00;0.62;0.00;0.00;0.62;1.60;0.80;;;19.40;24.30;;;;;;2254848;61;20417;-63
2023/01/17 04:00:10;0.00;0.00;0.62;0.00;0.00;0.62;1.50;0.70;;;19.40;24.30;;;;;;2254637;61;20454;-66
2023/01/17 04:02:55;0.00;0.00;0.62;0.00;0.00;0.62;1.87;0.80;;;19.40;24.30;;;;;;2254487;61;20384;-63
2023/01/17 04:05:40;0.00;0.00;0.62;0.00;0.00;0.62;1.70;0.90;;;19.40;24.40;;;;;;2254328;61;20361;-61
2023/01/17 04:08:24;0.00;0.00;0.62;0.00;0.00;0.62;1.30;0.70;;;19.40;24.40;;;;;;2253989;61;20838;-59
2023/01/17 04:11:09;0.00;0.00;0.62;0.00;0.00;0.62;1.20;0.60;;;19.30;24.40;;;;;;2254816;61;20441;-62
2023/01/17 04:13:55;0.00;0.00;0.62;0.00;0.00;0.62;1.80;0.90;;;19.30;24.40;;;;;;2254760;61;20851;-63
2023/01/17 04:16:39;0.00;0.00;0.62;0.00;0.00;0.62;1.50;0.90;;;19.30;24.40;;;;;;2254473;61;20479;-62
2023/01/17 04:19:24;0.00;0.00;0.62;0.00;0.00;0.62;1.40;0.80;;;19.30;24.50;;;;;;2255657;61;20881;-60
2023/01/17 04:22:08;0.00;0.00;0.62;0.00;0.00;0.62;1.37;0.80;;;19.30;24.50;;;;;;2255161;61;20369;-62
2023/01/17 04:24:53;0.00;0.00;0.62;0.00;0.00;0.62;1.60;0.87;;;19.30;24.50;;;;;;2255254;61;20741;-61
2023/01/17 04:27:37;0.00;0.00;0.62;0.00;0.00;0.62;1.30;0.80;;;19.30;24.50;;;;;;2255436;61;20386;-62
2023/01/17 04:30:25;0.00;0.00;0.62;0.00;0.00;0.62;1.30;0.70;;;19.30;24.50;;;;;;2255162;61;20850;-63
2023/01/17 04:33:10;0.00;0.00;0.62;0.00;0.00;0.62;1.40;0.70;;;19.20;24.50;;;;;;2255643;61;20388;-60
2023/01/17 04:35:55;0.00;0.00;0.62;0.00;0.00;0.62;1.83;1.07;;;19.20;24.40;;;;;;2255579;61;20413;-63
2023/01/17 04:38:39;0.00;0.00;0.62;0.00;0.00;0.62;1.47;0.83;;;19.20;24.40;;;;;;2254966;61;20889;-64
2023/01/17 04:41:24;0.00;0.00;0.62;0.00;0.00;0.62;1.40;0.70;;;19.20;24.40;;;;;;2255792;61;20859;-67
2023/01/17 04:44:10;0.00;0.00;0.62;0.00;0.00;0.62;1.30;0.70;;;19.10;24.30;;;;;;2254176;61;20386;-61
2023/01/17 04:46:56;0.00;0.00;0.62;0.00;0.00;0.62;1.50;0.80;;;19.10;24.40;;;;;;2254546;61;20386;-62
2023/01/17 04:49:40;0.00;0.00;0.62;0.00;0.00;0.62;1.90;0.80;;;19.10;24.40;;;;;;2255631;61;20401;-61
2023/01/17 04:52:25;0.00;0.00;0.62;0.00;0.00;0.62;1.40;0.73;;;19.00;24.30;;;;;;2255448;61;20408;-62
2023/01/17 04:55:09;0.00;0.00;0.62;0.00;0.00;0.62;1.30;0.73;;;19.00;24.30;;;;;;2256068;61;20432;-63
2023/01/17 04:57:56;0.00;0.00;0.62;0.00;0.00;0.62;1.77;0.70;;;19.00;24.30;;;;;;2254948;61;20358;-61
2023/01/17 05:00:41;0.00;0.00;0.62;0.00;0.00;0.62;1.43;0.70;;;19.00;24.40;;;;;;2255028;61;20388;-62
2023/01/17 05:03:28;0.00;0.00;0.62;0.00;0.00;0.62;3.40;0.70;;;18.90;24.30;;;;;;2255369;61;20970;-62
2023/01/17 05:06:13;0.00;0.00;0.62;0.00;0.00;0.62;2.17;0.70;;;18.90;24.40;;;;;;2254852;61;20398;-62
2023/01/17 05:08:57;0.00;0.00;0.62;0.00;0.00;0.62;1.30;0.73;;;18.80;24.30;;;;;;2254801;61;20458;-63
2023/01/17 05:11:42;0.00;0.00;0.62;0.00;0.00;0.62;1.40;0.63;;;18.80;24.40;;;;;;2255890;61;20358;-61
2023/01/17 05:14:27;0.00;0.00;0.62;0.00;0.00;0.62;1.30;0.70;;;18.80;24.50;;;;;;2254595;61;20386;-60
2023/01/17 05:17:12;0.00;0.00;0.62;0.00;0.00;0.62;1.67;0.67;;;18.70;24.50;;;;;;2255135;61;20382;-64
2023/01/17 05:19:59;0.00;0.00;0.62;0.00;0.00;0.62;1.47;0.70;;;18.70;24.50;;;;;;2255162;61;20957;-62
2023/01/17 05:22:46;0.00;0.00;0.62;0.00;0.00;0.62;1.60;0.77;;;18.60;25.00;;;;;;2254483;61;20394;-62
2023/01/17 05:25:32;0.00;0.00;0.62;0.00;0.00;0.62;1.67;0.70;;;18.60;24.50;;;;;;2255388;61;20417;-62
2023/01/17 05:28:17;0.00;0.00;0.62;0.00;0.00;0.62;1.30;0.60;;;18.60;24.50;;;;;;2254782;61;20848;-62
2023/01/17 05:31:01;0.00;0.00;0.62;0.00;0.00;0.62;1.30;0.70;;;18.50;24.40;;;;;;2254638;61;20365;-62
2023/01/17 05:33:46;0.00;0.00;0.62;0.00;0.00;0.62;1.30;0.60;;;18.50;24.40;;;;;;2255749;61;20778;-62
2023/01/17 05:36:32;0.00;0.00;0.62;0.00;0.00;0.62;1.40;0.70;;;18.50;24.40;;;;;;2255326;61;20917;-63
2023/01/17 05:39:17;0.00;0.00;0.62;0.00;0.00;0.62;1.30;0.60;;;18.40;24.40;;;;;;2255219;61;20439;-62
2023/01/17 05:42:03;0.00;0.00;0.62;0.00;0.00;0.62;1.53;0.67;;;18.40;24.40;;;;;;2255126;61;20689;-61
2023/01/17 05:44:47;0.00;0.00;0.62;0.00;0.00;0.62;1.47;0.60;;;18.30;24.40;;;;;;2254690;61;20393;-62
2023/01/17 05:47:32;0.00;0.00;0.62;0.00;0.00;0.62;1.30;0.60;;;18.30;24.50;;;;;;2255354;61;20917;-62
2023/01/17 05:50:21;0.00;0.00;0.62;0.00;0.00;0.62;1.30;0.60;;;18.30;25.10;;;;;;2254977;61;20657;-63
2023/01/17 05:53:09;0.00;0.00;0.62;0.00;0.00;0.62;1.67;0.60;;;18.30;24.50;;;;;;2254818;61;20929;-63
2023/01/17 05:55:53;0.00;0.00;0.62;0.00;0.00;0.62;1.83;0.70;;;18.20;24.50;;;;;;2255763;61;20366;-62
2023/01/17 05:58:38;0.00;0.00;0.62;0.00;0.00;0.62;1.80;0.80;;;18.20;24.60;;;;;;2254127;61;20361;-60
2023/01/17 06:01:23;0.00;0.00;0.62;0.00;0.00;0.62;1.67;0.73;;;18.20;24.70;;;;;;2255465;61;20773;-61
2023/01/17 06:04:08;0.00;0.00;0.62;0.00;0.00;0.62;1.40;0.90;;;18.20;24.70;;;;;;2254952;61;20425;-60
2023/01/17 06:06:52;0.00;0.00;0.62;0.00;0.00;0.62;1.20;0.60;;;18.20;24.70;;;;;;2254178;61;20389;-63
2023/01/17 06:09:40;0.00;0.00;0.62;0.00;0.00;0.62;1.87;0.60;;;18.20;24.70;;;;;;2254906;61;20421;-61
2023/01/17 06:12:25;0.00;0.00;0.62;0.00;0.00;0.62;1.20;0.60;;;18.20;24.80;;;;;;2490146;53;20906;-61
2023/01/17 06:15:11;0.00;0.00;0.62;0.00;0.00;0.62;1.30;0.70;;;18.20;25.40;;;;;;2253439;61;20466;-62
2023/01/17 06:17:56;0.00;0.00;0.62;0.00;0.00;0.62;1.37;0.70;;;18.10;24.80;;;;;;2253582;61;20477;-62
2023/01/17 06:20:41;0.00;0.00;0.62;0.00;0.00;0.62;1.87;0.70;;;18.10;24.80;;;;;;2253998;61;20366;-62
2023/01/17 06:23:27;0.00;0.00;0.62;0.00;0.00;0.62;1.20;0.60;;;18.10;24.80;;;;;;2254303;61;20644;-59
2023/01/17 06:26:13;0.00;0.00;0.62;0.00;0.00;0.62;1.30;0.60;;;18.10;24.80;;;;;;2254293;61;20365;-62
2023/01/17 06:28:58;0.00;0.00;0.62;0.00;0.00;0.62;1.40;0.60;;;18.10;24.80;;;;;;2253505;61;20799;-61
2023/01/17 06:31:42;0.00;0.00;0.62;0.00;0.00;0.62;1.37;0.70;;;18.10;24.80;;;;;;2254177;61;20413;-66
2023/01/17 06:34:27;0.00;0.00;0.62;0.00;0.00;0.62;1.40;0.70;;;18.10;24.80;;;;;;2253992;61;20897;-62
2023/01/17 06:37:12;0.00;0.00;0.62;0.00;0.00;0.62;1.50;0.63;;;18.10;24.80;;;;;;2253685;61;20429;-63
2023/01/17 06:39:57;0.00;0.00;0.62;0.00;0.00;0.62;1.60;0.70;;;18.00;24.70;;;;;;2254043;61;20365;-62
2023/01/17 06:42:43;0.00;0.00;0.62;0.00;0.00;0.62;1.40;0.70;;;18.00;24.80;;;;;;2254005;61;20378;-63
2023/01/17 06:45:31;0.00;0.00;0.62;0.00;0.00;0.62;1.20;0.60;;;18.00;24.80;;;;;;2253454;61;20385;-62
2023/01/17 06:48:16;0.00;0.00;0.62;0.00;0.00;0.62;1.67;0.80;;;18.00;24.80;;;;;;2253913;61;20819;-62
2023/01/17 06:51:00;0.00;0.00;0.62;0.00;0.00;0.62;1.60;0.70;;;18.00;24.90;;;;;;2254132;61;20481;-62
2023/01/17 06:53:47;0.00;0.00;0.62;0.00;0.00;0.62;1.40;0.70;;;18.00;24.80;;;;;;2255447;61;20937;-62
2023/01/17 06:56:33;0.00;0.00;0.62;0.00;0.00;0.62;1.23;0.60;;;18.00;24.90;;;;;;2255090;61;20362;-65
2023/01/17 06:59:19;0.00;0.00;0.62;0.00;0.00;0.62;1.50;0.90;;;18.00;24.90;;;;;;2253890;61;20759;-59
2023/01/17 07:02:04;0.00;0.00;0.62;0.00;0.00;0.62;1.93;0.70;;;17.90;24.80;;;;;;2255197;61;20366;-61
2023/01/17 07:04:49;0.00;0.00;0.62;0.00;0.00;0.62;1.57;0.67;;;17.90;24.80;;;;;;2254308;61;20365;-60
2023/01/17 07:07:33;0.00;0.00;0.62;0.00;0.00;0.62;1.30;0.70;;;17.90;24.80;;;;;;2254469;61;20393;-63
2023/01/17 07:10:18;0.00;0.00;0.62;0.00;0.00;0.62;1.80;0.80;;;17.90;24.80;;;;;;2255436;61;20377;-62
2023/01/17 07:13:03;0.00;0.00;0.62;0.00;0.00;0.62;1.40;0.70;;;17.90;24.90;;;;;;2254702;61;20385;-60
2023/01/17 07:15:50;0.00;0.00;0.62;0.00;0.00;0.62;1.30;0.60;;;17.90;24.90;;;;;;2255491;61;20346;-64
2023/01/17 07:18:35;0.00;0.00;0.62;0.00;0.00;0.62;5.90;0.70;;;17.90;25.00;;;;;;2254582;61;20905;-60
2023/01/17 07:21:21;0.00;0.00;0.62;0.00;0.00;0.62;1.57;0.70;;;17.90;24.90;;;;;;2254552;61;20956;-59
2023/01/17 07:24:06;0.00;0.00;0.62;0.00;0.00;0.62;1.40;0.67;;;17.90;24.90;;;;;;2255480;61;20417;-59
2023/01/17 07:26:52;0.00;0.00;0.62;0.00;0.00;0.62;1.20;0.57;;;17.90;25.00;;;;;;2254050;61;20412;-60
2023/01/17 07:29:37;0.00;0.00;0.62;0.00;0.00;0.62;1.20;0.60;;;17.80;24.90;;;;;;2254632;61;20374;-60
2023/01/17 07:32:25;0.00;0.00;0.62;0.00;0.00;0.62;1.30;0.70;;;17.80;24.90;;;;;;2254728;61;20386;-62
2023/01/17 07:35:09;0.00;0.00;0.62;0.00;0.00;0.62;1.50;0.60;;;17.80;24.90;;;;;;2254722;61;20386;-60
2023/01/17 07:37:54;0.00;0.00;0.62;0.00;0.00;0.62;1.30;0.70;;;17.80;24.80;;;;;;2255192;61;20385;-64
2023/01/17 07:40:39;0.00;0.00;0.62;0.00;0.00;0.62;1.37;0.60;;;17.80;24.90;;;;;;2254844;61;20362;-61
2023/01/17 07:43:24;0.00;0.00;0.62;0.00;0.00;0.62;2.30;0.60;;;17.80;24.80;;;;;;2254137;61;20934;-59
2023/01/17 07:46:09;0.00;0.00;0.62;0.00;0.00;0.62;1.60;0.80;;;17.70;24.80;;;;;;2255314;61;20361;-62
2023/01/17 07:48:55;0.00;0.00;0.62;0.00;0.00;0.62;1.37;0.70;;;17.80;24.80;;;;;;2254543;61;20488;-59
2023/01/17 07:51:39;0.00;0.00;0.62;0.00;0.00;0.62;2.13;0.77;;;17.70;24.70;;;;;;2254691;61;20729;-61
2023/01/17 07:54:24;0.00;0.00;0.62;0.00;0.00;0.62;1.80;0.70;;;17.70;24.80;;;;;;2257109;61;20389;-61
2023/01/17 07:57:11;0.00;0.00;0.62;0.00;0.00;0.62;1.40;0.80;;;17.70;24.90;;;;;;2258054;61;20362;-61
2023/01/17 07:59:56;0.00;0.00;0.62;0.00;0.00;0.62;1.83;0.80;;;17.70;24.90;;;;;;2258998;61;20353;-62
2023/01/17 08:02:40;0.00;0.00;0.62;0.00;0.00;0.62;2.30;0.77;;;17.70;24.80;;;;;;2258388;61;20416;-61
2023/01/17 08:05:27;0.00;0.00;0.62;0.00;0.00;0.62;2.00;0.90;;;17.70;24.80;;;;;;2257665;61;20396;-59
2023/01/17 08:08:11;0.00;0.00;0.62;0.00;0.00;0.62;1.80;0.77;;;17.70;24.80;;;;;;2259072;61;20412;-60
2023/01/17 08:10:56;0.00;0.00;0.62;0.00;0.00;0.62;1.70;0.90;;;17.70;24.80;;;;;;2258999;61;20360;-59
2023/01/17 08:13:41;0.00;0.00;0.62;0.00;0.00;0.62;1.70;0.90;;;17.70;24.80;;;;;;2258335;61;20385;-61
2023/01/17 08:16:27;0.00;0.00;0.62;0.00;0.00;0.62;1.50;0.70;;;17.70;24.80;;;;;;2259018;61;20364;-66
2023/01/17 08:19:13;0.00;0.00;0.62;0.00;0.00;0.62;3.10;0.80;;;17.70;24.80;;;;;;2258218;61;20412;-61
2023/01/17 08:21:59;0.00;0.00;0.62;0.00;0.00;0.62;2.00;1.00;;;17.60;24.60;;;;;;2259023;61;20391;-61
2023/01/17 08:24:44;0.00;0.00;0.62;0.00;0.00;0.62;1.67;1.00;;;17.60;24.50;;;;;;2258660;61;20384;-59
2023/01/17 08:27:28;0.00;0.00;0.62;0.00;0.00;0.62;1.93;0.70;;;17.60;24.50;;;;;;2257624;61;20393;-62
2023/01/17 08:30:14;0.00;0.00;0.62;0.00;0.00;0.62;1.70;0.80;;;17.60;24.70;;;;;;2259292;61;20455;-61
2023/01/17 08:32:59;0.00;0.00;0.62;0.00;0.00;0.62;2.90;1.23;;;17.60;24.80;;;;;;2259377;61;20435;-60
2023/01/17 08:35:51;0.00;0.00;0.62;0.00;0.00;0.62;1.60;0.80;;;17.50;24.70;;;;;;2259331;61;20388;-68
2023/01/17 08:38:37;0.00;0.00;0.62;0.00;0.00;0.62;2.23;1.37;;;17.50;24.80;;;;;;2259118;61;20445;-58
2023/01/17 08:41:23;0.00;0.00;0.62;0.00;0.00;0.62;2.03;0.87;;;17.50;24.80;;;;;;2259697;61;20412;-63
2023/01/17 08:44:08;0.00;0.00;0.62;0.00;0.00;0.62;1.60;0.80;;;17.50;24.90;;;;;;2259260;61;20427;-59
2023/01/17 08:46:52;0.00;0.00;0.62;0.00;0.00;0.62;3.20;0.90;;;17.50;24.90;;;;;;2259670;61;20901;-61
2023/01/17 08:49:37;0.00;0.00;0.62;0.00;0.00;0.62;1.67;1.00;;;17.50;24.90;;;;;;2259446;61;20399;-60
2023/01/17 08:52:22;0.00;0.00;0.62;0.00;0.00;0.62;2.37;1.03;;;17.50;24.90;;;;;;2259633;61;20361;-60
2023/01/17 08:55:10;0.00;0.00;0.62;0.00;0.00;0.62;3.00;1.00;;;17.50;24.90;;;;;;2258980;61;20361;-65
2023/01/17 08:57:56;0.00;0.00;0.62;0.00;0.00;0.62;2.27;0.80;;;17.40;24.80;;;;;;2258706;61;20360;-62
2023/01/17 09:00:40;0.00;0.00;0.62;0.00;0.00;0.62;1.97;0.90;;;17.50;24.90;;;;;;2259860;61;20412;-61
2023/01/17 09:03:25;0.00;0.00;0.62;0.00;0.00;0.62;4.17;0.80;;;17.50;24.90;;;;;;2260698;61;20459;-61
2023/01/17 09:06:12;0.00;0.00;0.62;0.00;0.00;0.62;1.70;0.80;;;17.50;24.90;;;;;;2259959;61;20384;-60
2023/01/17 09:08:58;0.00;0.00;0.62;0.00;0.00;0.62;3.10;1.10;;;17.50;24.90;;;;;;2259308;61;20389;-64
2023/01/17 09:11:44;0.00;0.00;0.62;0.00;0.00;0.62;3.33;1.17;;;17.50;25.40;;;;;;2258481;61;20913;-61
2023/01/17 09:14:29;0.00;0.00;0.62;0.00;0.00;0.62;2.07;0.80;;;17.50;24.90;;;;;;2259569;61;20385;-56
2023/01/17 09:17:13;0.00;0.00;0.62;0.00;0.00;0.62;6.20;1.00;;;17.50;24.90;;;;;;2259247;61;20361;-57
2023/01/17 09:19:58;0.00;0.00;0.62;0.00;0.00;0.62;2.40;1.10;;;17.50;24.90;;;;;;2259108;61;20361;-55
2023/01/17 09:22:43;0.00;0.00;0.62;0.00;0.00;0.62;3.57;1.00;;;17.60;25.00;;;;;;2257946;61;20837;-60
2023/01/17 09:25:27;0.00;0.00;0.62;0.00;0.00;0.62;2.60;1.17;;;17.60;24.90;;;;;;2254208;61;20789;-57
2023/01/17 09:28:13;0.00;0.00;0.62;0.00;0.00;0.62;2.40;0.90;;;17.60;24.90;;;;;;2254558;61;20374;-60
2023/01/17 09:30:58;0.00;0.00;0.62;0.00;0.00;0.62;1.90;0.80;;;17.60;24.90;;;;;;2255458;61;20416;-58
2023/01/17 09:33:42;0.00;0.00;0.62;0.00;0.00;0.62;5.00;1.10;;;17.70;25.50;;;;;;2255338;61;20664;-58
2023/01/17 09:36:30;0.00;0.00;0.62;0.00;0.00;0.62;3.67;1.00;;;17.70;24.90;;;;;;2255944;61;20362;-60
2023/01/17 09:39:15;0.00;0.00;0.62;0.00;0.00;0.62;3.60;1.50;;;17.70;24.80;;;;;;2255254;61;20361;-55
2023/01/17 09:42:10;0.00;0.00;0.62;0.00;0.00;0.62;4.40;1.10;;;17.70;24.80;;;;;;2255373;61;20370;-59
2023/01/17 09:44:57;0.00;0.00;0.62;0.00;0.00;0.62;2.27;1.10;;;17.80;24.80;;;;;;2255883;61;20921;-57
2023/01/17 09:47:45;0.00;0.00;0.62;0.00;0.00;0.62;2.77;1.30;;;17.80;24.70;;;;;;2255307;61;20410;-56
2023/01/17 09:50:34;0.00;0.00;0.62;0.00;0.00;0.62;3.80;1.10;;;17.80;24.60;;;;;;2255498;61;20909;-58
2023/01/17 09:53:22;0.00;0.00;0.62;0.00;0.00;0.62;2.30;1.10;;;17.90;24.70;;;;;;2255523;61;20404;-54
2023/01/17 09:56:12;0.00;0.00;0.62;0.00;0.00;0.62;1.67;0.80;;;17.90;24.60;;;;;;2255279;61;20397;-58
2023/01/17 09:59:17;0.00;0.00;0.62;0.00;0.00;0.62;2.30;0.97;;;17.90;24.20;;;;;;2255584;61;20362;-64
2023/01/17 10:02:32;0.00;0.00;0.62;0.00;0.00;0.62;2.87;1.10;;;18.00;24.30;;;;;;2255558;61;20365;-59
2023/01/17 10:05:33;0.00;0.00;0.62;0.00;0.00;0.62;2.13;0.90;;;18.00;24.40;;;;;;2255504;61;20417;-59
2023/01/17 10:08:37;0.00;0.00;0.62;0.00;0.00;0.62;2.30;0.83;;;18.10;24.60;;;;;;2255126;61;20440;-62
2023/01/17 10:11:40;0.00;0.00;0.62;0.00;0.00;0.62;1.60;0.70;;;18.20;24.80;;;;;;2254949;61;20361;-66
2023/01/17 10:15:09;0.00;0.00;0.62;0.00;0.00;0.62;1.80;0.80;;;18.20;24.90;;;;;;2255499;61;20956;-62
2023/01/17 10:18:08;0.00;0.00;0.62;0.00;0.00;0.62;1.90;0.90;;;18.30;25.10;;;;;;2254688;61;20797;-61
2023/01/17 10:21:01;0.00;0.00;0.62;0.00;0.00;0.62;1.60;0.90;;;18.40;25.30;;;;;;2255571;61;20484;-57
2023/01/17 10:24:15;0.00;0.00;0.62;0.00;0.00;0.62;2.83;1.30;;;18.50;25.40;;;;;;2255491;61;20833;-61
2023/01/17 10:27:02;0.00;0.00;0.62;0.00;0.00;0.62;2.07;1.20;;;18.60;25.60;;;;;;2255152;61;20385;-60
2023/01/17 10:29:48;0.00;0.00;0.62;0.00;0.00;0.62;1.90;1.10;;;18.60;25.50;;;;;;2256583;61;20393;-58
2023/01/17 10:32:41;0.00;0.00;0.62;0.00;0.00;0.62;2.50;1.13;;;18.70;25.60;;;;;;2255270;61;20386;-60
2023/01/17 10:35:32;0.00;0.00;0.62;0.00;0.00;0.62;1.97;1.10;;;18.80;26.20;;;;;;2256491;61;20357;-60
2023/01/17 10:38:18;0.00;0.00;0.62;0.00;0.00;0.62;1.97;1.00;;;18.80;25.60;;;;;;2255938;61;20394;-60
2023/01/17 10:41:08;0.00;0.00;0.62;0.00;0.00;0.62;2.60;1.10;;;18.90;25.70;;;;;;2255534;61;20381;-58
2023/01/17 10:44:05;0.00;0.00;0.62;0.00;0.00;0.62;1.83;1.20;;;19.00;25.70;;;;;;2256465;61;20378;-59
2023/01/17 10:46:56;0.00;0.00;0.62;0.00;0.00;0.62;6.30;1.40;;;19.10;25.80;;;;;;2256038;61;20782;-62
2023/01/17 10:49:45;0.00;0.00;0.62;0.00;0.00;0.62;2.47;1.13;;;19.10;25.80;;;;;;2255994;61;20501;-60
2023/01/17 10:52:45;0.00;0.00;0.62;0.00;0.00;0.62;4.83;1.47;;;19.20;25.80;;;;;;2257498;61;20766;-62
2023/01/17 10:55:38;0.00;0.00;0.62;0.00;0.00;0.62;2.30;1.10;;;19.30;25.90;;;;;;2256490;61;20405;-62
2023/01/17 10:58:24;0.00;0.00;0.62;0.00;0.00;0.62;2.00;1.03;;;19.30;26.10;;;;;;2255995;61;20374;-64
2023/01/17 11:01:16;0.00;0.00;0.62;0.00;0.00;0.62;2.23;1.17;;;19.40;26.20;;;;;;2256216;61;20460;-64
2023/01/17 11:04:01;0.00;0.00;0.62;0.00;0.00;0.62;2.37;1.10;;;19.40;26.30;;;;;;2255772;61;20385;-55
2023/01/17 11:06:47;0.00;0.00;0.62;0.00;0.00;0.62;2.20;1.30;;;19.50;26.30;;;;;;2255651;61;20417;-58
2023/01/17 11:09:39;0.00;0.00;0.62;0.00;0.00;0.62;2.67;0.93;;;19.50;26.30;;;;;;2252989;61;20462;-60
2023/01/17 11:12:29;0.00;0.00;0.62;0.00;0.00;0.62;2.07;1.33;;;19.60;26.20;;;;;;2253165;61;20416;-61
2023/01/17 11:15:24;0.00;0.00;0.62;0.00;0.00;0.62;2.07;1.20;;;19.60;26.00;;;;;;2255233;61;20409;-60
2023/01/17 11:18:17;0.00;0.00;0.62;0.00;0.00;0.62;2.20;1.33;;;19.70;25.90;;;;;;2254877;61;20941;-62
2023/01/17 11:21:10;0.00;0.00;0.62;0.00;0.00;0.62;2.63;1.33;;;19.80;26.00;;;;;;2254833;55;20441;-62
2023/01/17 11:23:56;0.00;0.00;0.62;0.00;0.00;0.62;2.33;1.10;;;19.80;25.90;;;;;;2255915;61;20370;-61
2023/01/17 11:26:48;0.00;0.00;0.62;0.00;0.00;0.62;4.43;1.40;;;19.90;25.90;;;;;;2256161;61;20381;-59
2023/01/17 11:29:37;0.00;0.00;0.62;0.00;0.00;0.62;2.50;1.33;;;20.00;25.90;;;;;;2255032;61;20390;-59
2023/01/17 11:32:33;0.00;0.00;0.62;0.00;0.00;0.62;2.20;1.23;;;20.00;25.80;;;;;;2251810;61;20370;-66
2023/01/17 11:35:20;0.00;0.00;0.62;0.00;0.00;0.62;2.30;1.30;;;20.10;25.80;;;;;;2251747;61;20362;-63
2023/01/17 11:38:17;0.00;0.00;0.62;0.00;0.00;0.62;2.33;1.17;;;20.20;25.80;;;;;;2251648;61;20401;-59
2023/01/17 11:41:20;0.00;0.00;0.62;0.00;0.00;0.62;3.60;1.20;;;20.20;25.80;;;;;;2252059;61;20418;-63
2023/01/17 11:44:24;0.00;0.00;0.62;0.00;0.00;0.62;2.10;1.27;;;20.30;25.80;;;;;;2251879;61;20949;-64
2023/01/17 11:47:17;0.00;0.00;0.62;0.00;0.00;0.62;1.70;1.00;;;20.40;25.70;;;;;;2251454;61;20358;-62
2023/01/17 11:50:22;0.00;0.00;0.62;0.00;0.00;0.62;2.00;1.10;;;20.50;25.70;;;;;;2251729;61;20664;-62
2023/01/17 11:53:19;0.00;0.00;0.62;0.00;0.00;0.62;1.73;1.13;;;20.50;25.70;;;;;;2251609;61;20366;-64
2023/01/17 11:56:07;0.00;0.00;0.62;0.00;0.00;0.62;1.70;0.90;;;20.60;25.70;;;;;;2252427;61;20409;-66
2023/01/17 11:59:06;0.00;0.00;0.62;0.00;0.00;0.62;1.70;1.00;;;20.70;25.70;;;;;;2251675;61;20391;-61
2023/01/17 12:02:30;0.00;0.00;0.62;0.00;0.00;0.62;1.50;0.80;;;20.70;25.60;;;;;;2252075;61;20403;-65
2023/01/17 12:05:36;0.00;0.00;0.62;0.00;0.00;0.62;1.90;1.00;;;20.80;26.20;;;;;;2248520;61;21004;-61
2023/01/17 12:08:41;0.00;0.00;0.62;0.00;0.00;0.62;3.00;1.40;;;20.80;25.60;;;;;;2251596;61;20529;-63
2023/01/17 12:11:37;0.00;0.00;0.62;0.00;0.00;0.62;2.27;1.20;;;20.90;25.60;;;;;;2252084;61;20379;-64
2023/01/17 12:14:29;0.00;0.00;0.62;0.00;0.00;0.62;1.80;1.10;;;20.90;25.50;;;;;;2252276;61;20494;-60
2023/01/17 12:17:29;0.00;0.00;0.62;0.00;0.00;0.62;1.80;0.90;;;21.00;25.60;;;;;;2251286;61;20406;-62
2023/01/17 12:20:23;0.00;0.00;0.62;0.00;0.00;0.62;1.93;0.90;;;21.10;25.60;;;;;;2251517;61;20866;-62
2023/01/17 12:24:01;0.00;0.00;0.62;0.00;0.00;0.62;1.80;0.90;;;21.10;25.40;;;;;;2252015;61;20414;-67
2023/01/17 12:26:56;0.00;0.00;0.62;0.00;0.00;0.62;2.70;1.23;;;21.20;25.30;;;;;;2226322;62;20953;-62
2023/01/17 12:29:48;0.00;0.00;0.62;0.00;0.00;0.62;2.17;1.43;;;21.20;25.30;;;;;;2231002;61;20650;-59